sensor_id;sensor_type;location;lat;lon;timestamp;P1;durP1;ratioP1;P2;durP2;ratioP2
27265;SDS011;14766;51.380;13.762;2023-03-14T00:01:22;2.70;;;0.80;;
27265;SDS011;14766;51.380;13.762;2023-03-14T00:03:50;1.25;;;0.80;;
27265;SDS011;14766;51.380;13.762;2023-03-14T00:06:17;1.00;;;0.80;;
27265;SDS011;14766;51.380;13.762;2023-03-14T00:08:45;1.02;;;0.90;;
27265;SDS011;14766;51.380;13.762;2023-03-14T00:11:17;1.40;;;1.10;;
27265;SDS011;14766;51.380;13.762;2023-03-14T00:13:49;2.13;;;0.95;;
27265;SDS011;14766;51.380;13.762;2023-03-14T00:16:17;1.75;;;0.80;;
27265;SDS011;14766;51.380;13.762;2023-03-14T00:18:45;1.10;;;1.00;;
27265;SDS011;14766;51.380;13.762;2023-03-14T00:21:12;1.33;;;0.88;;
27265;SDS011;14766;51.380;13.762;2023-03-14T00:23:40;1.50;;;1.10;;
27265;SDS011;14766;51.380;13.762;2023-03-14T00:26:13;3.92;;;1.02;;
27265;SDS011;14766;51.380;13.762;2023-03-14T00:28:42;1.50;;;1.00;;
27265;SDS011;14766;51.380;13.762;2023-03-14T00:31:11;1.00;;;0.90;;
27265;SDS011;14766;51.380;13.762;2023-03-14T00:33:41;1.27;;;1.10;;
27265;SDS011;14766;51.380;13.762;2023-03-14T00:36:10;1.20;;;1.00;;
27265;SDS011;14766;51.380;13.762;2023-03-14T00:38:39;1.13;;;0.98;;
27265;SDS011;14766;51.380;13.762;2023-03-14T00:41:08;1.98;;;1.00;;
27265;SDS011;14766;51.380;13.762;2023-03-14T00:43:37;2.58;;;0.95;;
27265;SDS011;14766;51.380;13.762;2023-03-14T00:46:05;1.15;;;0.82;;
27265;SDS011;14766;51.380;13.762;2023-03-14T00:48:33;1.20;;;0.80;;
27265;SDS011;14766;51.380;13.762;2023-03-14T00:51:02;2.47;;;0.90;;
27265;SDS011;14766;51.380;13.762;2023-03-14T00:53:38;1.58;;;0.90;;
27265;SDS011;14766;51.380;13.762;2023-03-14T00:56:07;1.05;;;0.95;;
27265;SDS011;14766;51.380;13.762;2023-03-14T00:58:36;1.10;;;1.00;;
27265;SDS011;14766;51.380;13.762;2023-03-14T01:01:12;0.75;;;0.75;;
27265;SDS011;14766;51.380;13.762;2023-03-14T01:03:44;1.73;;;0.98;;
27265;SDS011;14766;51.380;13.762;2023-03-14T01:06:12;1.00;;;0.80;;
27265;SDS011;14766;51.380;13.762;2023-03-14T01:08:42;1.52;;;1.00;;
27265;SDS011;14766;51.380;13.762;2023-03-14T01:11:14;1.73;;;0.90;;
27265;SDS011;14766;51.380;13.762;2023-03-14T01:13:46;1.00;;;0.90;;
27265;SDS011;14766;51.380;13.762;2023-03-14T01:16:14;2.97;;;1.90;;
27265;SDS011;14766;51.380;13.762;2023-03-14T01:18:42;1.60;;;1.00;;
27265;SDS011;14766;51.380;13.762;2023-03-14T01:21:11;1.35;;;1.08;;
27265;SDS011;14766;51.380;13.762;2023-03-14T01:26:15;1.50;;;1.40;;
27265;SDS011;14766;51.380;13.762;2023-03-14T01:28:46;1.88;;;1.48;;
27265;SDS011;14766;51.380;13.762;2023-03-14T01:31:14;2.08;;;1.40;;
27265;SDS011;14766;51.380;13.762;2023-03-14T01:33:41;3.30;;;1.60;;
27265;SDS011;14766;51.380;13.762;2023-03-14T01:36:09;1.90;;;1.48;;
27265;SDS011;14766;51.380;13.762;2023-03-14T01:38:39;1.83;;;1.63;;
27265;SDS011;14766;51.380;13.762;2023-03-14T01:41:14;2.05;;;1.50;;
27265;SDS011;14766;51.380;13.762;2023-03-14T01:43:44;2.83;;;1.70;;
27265;SDS011;14766;51.380;13.762;2023-03-14T01:51:57;2.42;;;1.70;;
27265;SDS011;14766;51.380;13.762;2023-03-14T01:54:52;2.13;;;1.55;;
27265;SDS011;14766;51.380;13.762;2023-03-14T01:57:35;1.60;;;1.50;;
27265;SDS011;14766;51.380;13.762;2023-03-14T02:00:10;2.00;;;1.65;;
27265;SDS011;14766;51.380;13.762;2023-03-14T02:02:47;2.35;;;1.52;;
27265;SDS011;14766;51.380;13.762;2023-03-14T02:05:19;2.28;;;1.63;;
27265;SDS011;14766;51.380;13.762;2023-03-14T02:08:02;3.15;;;1.70;;
27265;SDS011;14766;51.380;13.762;2023-03-14T02:10:44;2.85;;;1.70;;
27265;SDS011;14766;51.380;13.762;2023-03-14T02:13:15;1.98;;;1.50;;
27265;SDS011;14766;51.380;13.762;2023-03-14T02:15:45;1.88;;;1.48;;
27265;SDS011;14766;51.380;13.762;2023-03-14T02:18:32;1.55;;;1.40;;
27265;SDS011;14766;51.380;13.762;2023-03-14T02:29:49;1.38;;;1.25;;
27265;SDS011;14766;51.380;13.762;2023-03-14T02:32:20;2.03;;;1.30;;
27265;SDS011;14766;51.380;13.762;2023-03-14T02:34:50;1.98;;;1.30;;
27265;SDS011;14766;51.380;13.762;2023-03-14T02:37:21;2.15;;;1.40;;
27265;SDS011;14766;51.380;13.762;2023-03-14T02:39:53;2.28;;;1.35;;
27265;SDS011;14766;51.380;13.762;2023-03-14T02:42:21;1.95;;;1.20;;
27265;SDS011;14766;51.380;13.762;2023-03-14T02:44:59;1.40;;;1.30;;
27265;SDS011;14766;51.380;13.762;2023-03-14T02:47:44;1.85;;;1.10;;
27265;SDS011;14766;51.380;13.762;2023-03-14T02:50:21;1.52;;;1.15;;
27265;SDS011;14766;51.380;13.762;2023-03-14T02:52:50;1.98;;;1.20;;
27265;SDS011;14766;51.380;13.762;2023-03-14T02:55:21;1.45;;;1.17;;
27265;SDS011;14766;51.380;13.762;2023-03-14T02:57:52;1.35;;;0.90;;
27265;SDS011;14766;51.380;13.762;2023-03-14T03:00:20;1.10;;;1.00;;
27265;SDS011;14766;51.380;13.762;2023-03-14T03:02:47;1.05;;;0.95;;
27265;SDS011;14766;51.380;13.762;2023-03-14T03:05:14;1.05;;;0.93;;
27265;SDS011;14766;51.380;13.762;2023-03-14T03:07:41;1.08;;;0.73;;
27265;SDS011;14766;51.380;13.762;2023-03-14T03:10:09;1.73;;;0.95;;
27265;SDS011;14766;51.380;13.762;2023-03-14T03:12:37;0.75;;;0.68;;
27265;SDS011;14766;51.380;13.762;2023-03-14T03:15:04;1.45;;;0.70;;
27265;SDS011;14766;51.380;13.762;2023-03-14T03:17:34;0.50;;;0.50;;
27265;SDS011;14766;51.380;13.762;2023-03-14T03:20:02;0.70;;;0.70;;
27265;SDS011;14766;51.380;13.762;2023-03-14T03:22:31;0.93;;;0.63;;
27265;SDS011;14766;51.380;13.762;2023-03-14T03:25:01;1.40;;;0.50;;
27265;SDS011;14766;51.380;13.762;2023-03-14T03:27:30;0.95;;;0.40;;
27265;SDS011;14766;51.380;13.762;2023-03-14T03:29:58;0.60;;;0.40;;
27265;SDS011;14766;51.380;13.762;2023-03-14T03:32:29;0.95;;;0.40;;
27265;SDS011;14766;51.380;13.762;2023-03-14T03:34:56;0.80;;;0.50;;
27265;SDS011;14766;51.380;13.762;2023-03-14T03:37:23;0.70;;;0.52;;
27265;SDS011;14766;51.380;13.762;2023-03-14T03:39:51;0.30;;;0.30;;
27265;SDS011;14766;51.380;13.762;2023-03-14T03:42:18;0.77;;;0.22;;
27265;SDS011;14766;51.380;13.762;2023-03-14T03:44:45;2.35;;;0.75;;
27265;SDS011;14766;51.380;13.762;2023-03-14T03:47:14;5.32;;;0.40;;
27265;SDS011;14766;51.380;13.762;2023-03-14T03:49:42;0.55;;;0.43;;
27265;SDS011;14766;51.380;13.762;2023-03-14T03:52:10;1.17;;;0.50;;
27265;SDS011;14766;51.380;13.762;2023-03-14T03:54:37;0.40;;;0.40;;
27265;SDS011;14766;51.380;13.762;2023-03-14T03:57:04;0.40;;;0.40;;
27265;SDS011;14766;51.380;13.762;2023-03-14T03:59:33;0.65;;;0.43;;
27265;SDS011;14766;51.380;13.762;2023-03-14T04:02:00;0.45;;;0.40;;
27265;SDS011;14766;51.380;13.762;2023-03-14T04:04:28;0.57;;;0.50;;
27265;SDS011;14766;51.380;13.762;2023-03-14T04:06:55;1.00;;;0.60;;
27265;SDS011;14766;51.380;13.762;2023-03-14T04:09:23;1.00;;;0.50;;
27265;SDS011;14766;51.380;13.762;2023-03-14T04:12:08;0.52;;;0.43;;
27265;SDS011;14766;51.380;13.762;2023-03-14T04:14:52;0.73;;;0.50;;
27265;SDS011;14766;51.380;13.762;2023-03-14T04:17:20;0.55;;;0.40;;
27265;SDS011;14766;51.380;13.762;2023-03-14T04:19:48;1.42;;;0.50;;
27265;SDS011;14766;51.380;13.762;2023-03-14T04:22:19;0.45;;;0.30;;
27265;SDS011;14766;51.380;13.762;2023-03-14T04:24:50;1.35;;;0.30;;
27265;SDS011;14766;51.380;13.762;2023-03-14T04:27:20;0.60;;;0.40;;
27265;SDS011;14766;51.380;13.762;2023-03-14T04:29:47;1.05;;;0.55;;
27265;SDS011;14766;51.380;13.762;2023-03-14T04:32:18;0.47;;;0.40;;
27265;SDS011;14766;51.380;13.762;2023-03-14T04:34:46;0.80;;;0.40;;
27265;SDS011;14766;51.380;13.762;2023-03-14T04:37:13;1.00;;;0.47;;
27265;SDS011;14766;51.380;13.762;2023-03-14T04:39:43;0.63;;;0.43;;
27265;SDS011;14766;51.380;13.762;2023-03-14T04:42:15;0.30;;;0.30;;
27265;SDS011;14766;51.380;13.762;2023-03-14T04:44:42;0.70;;;0.60;;
27265;SDS011;14766;51.380;13.762;2023-03-14T04:47:11;0.30;;;0.30;;
27265;SDS011;14766;51.380;13.762;2023-03-14T04:49:39;1.63;;;1.13;;
27265;SDS011;14766;51.380;13.762;2023-03-14T04:52:09;1.55;;;0.68;;
27265;SDS011;14766;51.380;13.762;2023-03-14T04:54:37;0.40;;;0.40;;
27265;SDS011;14766;51.380;13.762;2023-03-14T04:57:04;0.50;;;0.40;;
27265;SDS011;14766;51.380;13.762;2023-03-14T04:59:33;0.73;;;0.50;;
27265;SDS011;14766;51.380;13.762;2023-03-14T05:02:19;1.42;;;0.60;;
27265;SDS011;14766;51.380;13.762;2023-03-14T05:08:03;0.70;;;0.50;;
27265;SDS011;14766;51.380;13.762;2023-03-14T05:10:37;1.27;;;0.40;;
27265;SDS011;14766;51.380;13.762;2023-03-14T05:13:23;0.45;;;0.40;;
27265;SDS011;14766;51.380;13.762;2023-03-14T05:16:13;0.75;;;0.40;;
27265;SDS011;14766;51.380;13.762;2023-03-14T05:18:47;0.98;;;0.40;;
27265;SDS011;14766;51.380;13.762;2023-03-14T05:21:37;1.60;;;0.50;;
27265;SDS011;14766;51.380;13.762;2023-03-14T05:24:04;1.55;;;0.40;;
27265;SDS011;14766;51.380;13.762;2023-03-14T05:27:09;1.70;;;0.90;;
27265;SDS011;14766;51.380;13.762;2023-03-14T05:29:36;3.88;;;0.88;;
27265;SDS011;14766;51.380;13.762;2023-03-14T05:32:29;1.58;;;0.55;;
27265;SDS011;14766;51.380;13.762;2023-03-14T05:35:32;5.00;;;0.80;;
27265;SDS011;14766;51.380;13.762;2023-03-14T05:38:25;1.17;;;0.60;;
27265;SDS011;14766;51.380;13.762;2023-03-14T05:41:03;1.15;;;0.80;;
27265;SDS011;14766;51.380;13.762;2023-03-14T05:43:59;1.05;;;0.60;;
27265;SDS011;14766;51.380;13.762;2023-03-14T05:47:02;2.35;;;1.20;;
27265;SDS011;14766;51.380;13.762;2023-03-14T05:49:38;2.10;;;1.13;;
27265;SDS011;14766;51.380;13.762;2023-03-14T05:52:15;1.95;;;0.80;;
27265;SDS011;14766;51.380;13.762;2023-03-14T05:55:01;1.43;;;0.80;;
27265;SDS011;14766;51.380;13.762;2023-03-14T05:57:46;2.33;;;1.10;;
27265;SDS011;14766;51.380;13.762;2023-03-14T06:00:13;1.48;;;0.82;;
27265;SDS011;14766;51.380;13.762;2023-03-14T06:02:57;2.05;;;0.90;;
27265;SDS011;14766;51.380;13.762;2023-03-14T06:05:29;2.45;;;1.10;;
27265;SDS011;14766;51.380;13.762;2023-03-14T06:07:59;2.65;;;0.80;;
27265;SDS011;14766;51.380;13.762;2023-03-14T06:10:29;2.33;;;0.90;;
27265;SDS011;14766;51.380;13.762;2023-03-14T06:12:56;3.67;;;1.00;;
27265;SDS011;14766;51.380;13.762;2023-03-14T06:15:23;4.30;;;1.05;;
27265;SDS011;14766;51.380;13.762;2023-03-14T06:17:53;3.20;;;0.80;;
27265;SDS011;14766;51.380;13.762;2023-03-14T06:20:22;2.13;;;0.70;;
27265;SDS011;14766;51.380;13.762;2023-03-14T06:22:50;2.35;;;0.73;;
27265;SDS011;14766;51.380;13.762;2023-03-14T06:25:17;1.50;;;0.70;;
27265;SDS011;14766;51.380;13.762;2023-03-14T06:27:46;2.42;;;1.00;;
27265;SDS011;14766;51.380;13.762;2023-03-14T06:30:14;1.77;;;0.80;;
27265;SDS011;14766;51.380;13.762;2023-03-14T06:32:43;2.97;;;0.80;;
27265;SDS011;14766;51.380;13.762;2023-03-14T06:35:12;2.85;;;1.08;;
27265;SDS011;14766;51.380;13.762;2023-03-14T06:37:42;3.10;;;1.20;;
27265;SDS011;14766;51.380;13.762;2023-03-14T06:40:09;3.10;;;1.05;;
27265;SDS011;14766;51.380;13.762;2023-03-14T06:43:00;2.55;;;1.20;;
27265;SDS011;14766;51.380;13.762;2023-03-14T06:45:29;2.15;;;1.00;;
27265;SDS011;14766;51.380;13.762;2023-03-14T06:47:58;3.42;;;1.30;;
27265;SDS011;14766;51.380;13.762;2023-03-14T06:50:35;4.57;;;1.50;;
27265;SDS011;14766;51.380;13.762;2023-03-14T06:53:03;3.53;;;1.00;;
27265;SDS011;14766;51.380;13.762;2023-03-14T06:55:32;2.22;;;0.93;;
27265;SDS011;14766;51.380;13.762;2023-03-14T06:57:59;4.18;;;1.67;;
27265;SDS011;14766;51.380;13.762;2023-03-14T07:00:28;4.00;;;1.33;;
27265;SDS011;14766;51.380;13.762;2023-03-14T07:07:13;5.50;;;1.00;;
27265;SDS011;14766;51.380;13.762;2023-03-14T07:09:41;2.72;;;1.02;;
27265;SDS011;14766;51.380;13.762;2023-03-14T07:12:08;2.92;;;1.35;;
27265;SDS011;14766;51.380;13.762;2023-03-14T07:14:35;4.40;;;1.33;;
27265;SDS011;14766;51.380;13.762;2023-03-14T07:17:05;4.57;;;1.20;;
27265;SDS011;14766;51.380;13.762;2023-03-14T07:19:33;3.28;;;1.10;;
27265;SDS011;14766;51.380;13.762;2023-03-14T07:22:00;3.97;;;1.20;;
27265;SDS011;14766;51.380;13.762;2023-03-14T07:24:30;4.35;;;1.30;;
27265;SDS011;14766;51.380;13.762;2023-03-14T07:27:00;2.83;;;1.10;;
27265;SDS011;14766;51.380;13.762;2023-03-14T07:29:30;3.53;;;1.02;;
27265;SDS011;14766;51.380;13.762;2023-03-14T07:32:01;2.83;;;1.00;;
27265;SDS011;14766;51.380;13.762;2023-03-14T07:34:29;3.38;;;1.70;;
27265;SDS011;14766;51.380;13.762;2023-03-14T07:36:57;6.55;;;1.75;;
27265;SDS011;14766;51.380;13.762;2023-03-14T07:39:24;3.47;;;1.02;;
27265;SDS011;14766;51.380;13.762;2023-03-14T07:42:08;5.15;;;1.13;;
27265;SDS011;14766;51.380;13.762;2023-03-14T07:44:37;3.05;;;0.80;;
27265;SDS011;14766;51.380;13.762;2023-03-14T07:47:05;3.08;;;1.00;;
27265;SDS011;14766;51.380;13.762;2023-03-14T07:49:33;3.50;;;1.13;;
27265;SDS011;14766;51.380;13.762;2023-03-14T07:52:00;3.10;;;0.93;;
27265;SDS011;14766;51.380;13.762;2023-03-14T07:54:52;2.65;;;0.88;;
27265;SDS011;14766;51.380;13.762;2023-03-14T07:57:19;2.65;;;0.98;;
27265;SDS011;14766;51.380;13.762;2023-03-14T07:59:47;2.15;;;1.00;;
27265;SDS011;14766;51.380;13.762;2023-03-14T08:02:14;2.30;;;1.00;;
27265;SDS011;14766;51.380;13.762;2023-03-14T08:04:42;3.88;;;1.73;;
27265;SDS011;14766;51.380;13.762;2023-03-14T08:07:09;4.05;;;1.67;;
27265;SDS011;14766;51.380;13.762;2023-03-14T08:09:39;4.05;;;1.63;;
27265;SDS011;14766;51.380;13.762;2023-03-14T08:12:06;3.85;;;1.50;;
27265;SDS011;14766;51.380;13.762;2023-03-14T08:14:34;3.25;;;1.40;;
27265;SDS011;14766;51.380;13.762;2023-03-14T08:17:01;10.40;;;3.05;;
27265;SDS011;14766;51.380;13.762;2023-03-14T08:19:29;4.38;;;2.15;;
27265;SDS011;14766;51.380;13.762;2023-03-14T08:21:56;4.80;;;3.00;;
27265;SDS011;14766;51.380;13.762;2023-03-14T08:24:23;5.68;;;3.20;;
27265;SDS011;14766;51.380;13.762;2023-03-14T08:26:50;5.00;;;2.22;;
27265;SDS011;14766;51.380;13.762;2023-03-14T08:29:17;2.63;;;1.50;;
27265;SDS011;14766;51.380;13.762;2023-03-14T08:31:44;2.53;;;1.58;;
27265;SDS011;14766;51.380;13.762;2023-03-14T08:34:12;4.50;;;1.45;;
27265;SDS011;14766;51.380;13.762;2023-03-14T08:36:40;2.83;;;1.20;;
27265;SDS011;14766;51.380;13.762;2023-03-14T08:39:08;2.35;;;1.33;;
27265;SDS011;14766;51.380;13.762;2023-03-14T08:41:37;2.88;;;1.30;;
27265;SDS011;14766;51.380;13.762;2023-03-14T08:44:10;3.38;;;1.27;;
27265;SDS011;14766;51.380;13.762;2023-03-14T08:46:44;2.05;;;0.98;;
27265;SDS011;14766;51.380;13.762;2023-03-14T08:49:11;1.63;;;1.00;;
27265;SDS011;14766;51.380;13.762;2023-03-14T08:51:39;3.03;;;0.90;;
27265;SDS011;14766;51.380;13.762;2023-03-14T08:54:11;3.20;;;1.17;;
27265;SDS011;14766;51.380;13.762;2023-03-14T08:56:38;2.83;;;2.00;;
27265;SDS011;14766;51.380;13.762;2023-03-14T08:59:09;1.73;;;1.10;;
27265;SDS011;14766;51.380;13.762;2023-03-14T09:01:37;2.35;;;1.10;;
27265;SDS011;14766;51.380;13.762;2023-03-14T09:04:05;2.35;;;1.50;;
27265;SDS011;14766;51.380;13.762;2023-03-14T09:06:33;4.35;;;1.17;;
27265;SDS011;14766;51.380;13.762;2023-03-14T09:09:02;4.57;;;1.15;;
27265;SDS011;14766;51.380;13.762;2023-03-14T09:11:29;2.60;;;0.90;;
27265;SDS011;14766;51.380;13.762;2023-03-14T09:13:57;1.77;;;0.90;;
27265;SDS011;14766;51.380;13.762;2023-03-14T09:16:26;1.88;;;0.98;;
27265;SDS011;14766;51.380;13.762;2023-03-14T09:18:53;1.73;;;0.90;;
27265;SDS011;14766;51.380;13.762;2023-03-14T09:21:21;5.00;;;0.90;;
27265;SDS011;14766;51.380;13.762;2023-03-14T09:23:51;3.67;;;1.02;;
27265;SDS011;14766;51.380;13.762;2023-03-14T09:26:18;1.88;;;0.90;;
27265;SDS011;14766;51.380;13.762;2023-03-14T09:28:46;1.23;;;0.90;;
27265;SDS011;14766;51.380;13.762;2023-03-14T09:31:14;1.55;;;0.90;;
27265;SDS011;14766;51.380;13.762;2023-03-14T09:33:42;3.22;;;0.70;;
27265;SDS011;14766;51.380;13.762;2023-03-14T09:36:09;4.53;;;1.02;;
27265;SDS011;14766;51.380;13.762;2023-03-14T09:38:36;2.40;;;1.10;;
27265;SDS011;14766;51.380;13.762;2023-03-14T09:41:11;1.73;;;0.80;;
27265;SDS011;14766;51.380;13.762;2023-03-14T09:43:42;6.32;;;1.30;;
27265;SDS011;14766;51.380;13.762;2023-03-14T09:46:11;3.20;;;1.00;;
27265;SDS011;14766;51.380;13.762;2023-03-14T09:48:40;4.88;;;1.00;;
27265;SDS011;14766;51.380;13.762;2023-03-14T09:51:11;2.00;;;0.80;;
27265;SDS011;14766;51.380;13.762;2023-03-14T09:53:43;3.13;;;1.00;;
27265;SDS011;14766;51.380;13.762;2023-03-14T09:56:23;2.70;;;1.00;;
27265;SDS011;14766;51.380;13.762;2023-03-14T09:58:58;5.57;;;1.38;;
27265;SDS011;14766;51.380;13.762;2023-03-14T10:01:31;2.65;;;0.90;;
27265;SDS011;14766;51.380;13.762;2023-03-14T10:04:05;2.20;;;0.80;;
27265;SDS011;14766;51.380;13.762;2023-03-14T10:06:39;8.10;;;2.33;;
27265;SDS011;14766;51.380;13.762;2023-03-14T10:09:10;4.03;;;1.25;;
27265;SDS011;14766;51.380;13.762;2023-03-14T10:11:57;1.90;;;0.98;;
27265;SDS011;14766;51.380;13.762;2023-03-14T10:14:35;2.20;;;0.80;;
27265;SDS011;14766;51.380;13.762;2023-03-14T10:17:08;3.47;;;1.02;;
27265;SDS011;14766;51.380;13.762;2023-03-14T10:19:37;1.98;;;0.80;;
27265;SDS011;14766;51.380;13.762;2023-03-14T10:22:17;1.67;;;0.80;;
27265;SDS011;14766;51.380;13.762;2023-03-14T10:24:46;1.67;;;0.80;;
27265;SDS011;14766;51.380;13.762;2023-03-14T10:27:21;1.52;;;1.00;;
27265;SDS011;14766;51.380;13.762;2023-03-14T10:29:56;2.97;;;1.50;;
27265;SDS011;14766;51.380;13.762;2023-03-14T10:32:32;3.53;;;1.60;;
27265;SDS011;14766;51.380;13.762;2023-03-14T10:37:51;1.70;;;0.82;;
27265;SDS011;14766;51.380;13.762;2023-03-14T10:40:30;3.33;;;0.90;;
27265;SDS011;14766;51.380;13.762;2023-03-14T10:43:07;5.28;;;1.52;;
27265;SDS011;14766;51.380;13.762;2023-03-14T10:45:42;3.80;;;1.50;;
27265;SDS011;14766;51.380;13.762;2023-03-14T10:48:20;4.78;;;1.55;;
27265;SDS011;14766;51.380;13.762;2023-03-14T10:53:32;2.75;;;0.70;;
27265;SDS011;14766;51.380;13.762;2023-03-14T10:56:19;0.98;;;0.63;;
27265;SDS011;14766;51.380;13.762;2023-03-14T10:58:49;3.33;;;0.65;;
27265;SDS011;14766;51.380;13.762;2023-03-14T11:15:10;1.40;;;0.60;;
27265;SDS011;14766;51.380;13.762;2023-03-14T11:29:20;2.83;;;0.80;;
27265;SDS011;14766;51.380;13.762;2023-03-14T11:31:48;2.35;;;0.70;;
27265;SDS011;14766;51.380;13.762;2023-03-14T11:37:01;1.13;;;0.60;;
27265;SDS011;14766;51.380;13.762;2023-03-14T11:39:40;1.40;;;0.98;;
27265;SDS011;14766;51.380;13.762;2023-03-14T11:42:12;4.10;;;0.68;;
27265;SDS011;14766;51.380;13.762;2023-03-14T11:44:43;1.35;;;0.60;;
27265;SDS011;14766;51.380;13.762;2023-03-14T11:47:15;2.35;;;0.90;;
27265;SDS011;14766;51.380;13.762;2023-03-14T11:49:56;1.25;;;0.70;;
27265;SDS011;14766;51.380;13.762;2023-03-14T11:52:33;1.42;;;0.65;;
27265;SDS011;14766;51.380;13.762;2023-03-14T11:57:39;0.93;;;0.57;;
27265;SDS011;14766;51.380;13.762;2023-03-14T12:00:17;1.83;;;0.50;;
27265;SDS011;14766;51.380;13.762;2023-03-14T12:08:39;2.92;;;0.93;;
27265;SDS011;14766;51.380;13.762;2023-03-14T12:13:52;1.43;;;0.50;;
27265;SDS011;14766;51.380;13.762;2023-03-14T12:18:51;1.30;;;0.60;;
27265;SDS011;14766;51.380;13.762;2023-03-14T12:21:19;1.40;;;0.80;;
27265;SDS011;14766;51.380;13.762;2023-03-14T12:23:56;2.08;;;0.82;;
27265;SDS011;14766;51.380;13.762;2023-03-14T12:26:25;1.00;;;0.60;;
27265;SDS011;14766;51.380;13.762;2023-03-14T12:34:24;2.15;;;0.60;;
27265;SDS011;14766;51.380;13.762;2023-03-14T12:42:38;2.22;;;0.73;;
27265;SDS011;14766;51.380;13.762;2023-03-14T12:48:00;2.30;;;0.80;;
27265;SDS011;14766;51.380;13.762;2023-03-14T13:01:30;2.45;;;1.02;;
27265;SDS011;14766;51.380;13.762;2023-03-14T13:04:07;1.45;;;0.90;;
27265;SDS011;14766;51.380;13.762;2023-03-14T13:12:12;2.17;;;1.60;;
27265;SDS011;14766;51.380;13.762;2023-03-14T13:14:41;1.05;;;0.80;;
27265;SDS011;14766;51.380;13.762;2023-03-14T13:17:13;1.75;;;0.60;;
27265;SDS011;14766;51.380;13.762;2023-03-14T13:20:09;1.70;;;0.45;;
27265;SDS011;14766;51.380;13.762;2023-03-14T13:22:45;0.82;;;0.45;;
27265;SDS011;14766;51.380;13.762;2023-03-14T13:25:14;0.75;;;0.40;;
27265;SDS011;14766;51.380;13.762;2023-03-14T13:27:43;1.77;;;0.70;;
27265;SDS011;14766;51.380;13.762;2023-03-14T13:30:20;2.35;;;1.00;;
27265;SDS011;14766;51.380;13.762;2023-03-14T13:32:49;1.48;;;0.50;;
27265;SDS011;14766;51.380;13.762;2023-03-14T13:35:27;0.70;;;0.43;;
27265;SDS011;14766;51.380;13.762;2023-03-14T13:37:57;0.65;;;0.50;;
27265;SDS011;14766;51.380;13.762;2023-03-14T13:40:38;1.50;;;0.40;;
27265;SDS011;14766;51.380;13.762;2023-03-14T13:43:16;1.02;;;0.40;;
27265;SDS011;14766;51.380;13.762;2023-03-14T13:48:25;1.08;;;0.40;;
27265;SDS011;14766;51.380;13.762;2023-03-14T13:51:03;0.55;;;0.40;;
27265;SDS011;14766;51.380;13.762;2023-03-14T13:53:41;0.88;;;0.60;;
27265;SDS011;14766;51.380;13.762;2023-03-14T13:56:20;0.50;;;0.50;;
27265;SDS011;14766;51.380;13.762;2023-03-14T13:58:50;1.67;;;0.80;;
27265;SDS011;14766;51.380;13.762;2023-03-14T14:03:51;0.70;;;0.50;;
27265;SDS011;14766;51.380;13.762;2023-03-14T14:09:00;1.25;;;0.50;;
27265;SDS011;14766;51.380;13.762;2023-03-14T14:11:42;1.60;;;0.57;;
27265;SDS011;14766;51.380;13.762;2023-03-14T14:14:40;1.30;;;0.50;;
27265;SDS011;14766;51.380;13.762;2023-03-14T14:17:10;0.80;;;0.50;;
27265;SDS011;14766;51.380;13.762;2023-03-14T14:19:39;1.17;;;0.40;;
27265;SDS011;14766;51.380;13.762;2023-03-14T14:22:09;0.85;;;0.60;;
27265;SDS011;14766;51.380;13.762;2023-03-14T14:24:37;1.25;;;0.50;;
27265;SDS011;14766;51.380;13.762;2023-03-14T14:27:41;1.00;;;0.30;;
27265;SDS011;14766;51.380;13.762;2023-03-14T14:30:03;0.70;;;0.50;;
27265;SDS011;14766;51.380;13.762;2023-03-14T14:33:06;1.75;;;0.63;;
27265;SDS011;14766;51.380;13.762;2023-03-14T14:35:38;1.73;;;0.60;;
27265;SDS011;14766;51.380;13.762;2023-03-14T14:38:10;1.67;;;0.60;;
27265;SDS011;14766;51.380;13.762;2023-03-14T14:40:46;3.13;;;0.82;;
27265;SDS011;14766;51.380;13.762;2023-03-14T14:43:21;1.27;;;0.70;;
27265;SDS011;14766;51.380;13.762;2023-03-14T14:45:50;1.88;;;0.70;;
27265;SDS011;14766;51.380;13.762;2023-03-14T14:48:21;1.15;;;0.50;;
27265;SDS011;14766;51.380;13.762;2023-03-14T14:56:20;1.13;;;0.50;;
27265;SDS011;14766;51.380;13.762;2023-03-14T14:58:57;0.50;;;0.40;;
27265;SDS011;14766;51.380;13.762;2023-03-14T15:01:31;1.30;;;0.75;;
27265;SDS011;14766;51.380;13.762;2023-03-14T15:04:09;1.48;;;0.50;;
27265;SDS011;14766;51.380;13.762;2023-03-14T15:06:43;1.00;;;0.50;;
27265;SDS011;14766;51.380;13.762;2023-03-14T15:09:14;1.48;;;0.50;;
27265;SDS011;14766;51.380;13.762;2023-03-14T15:11:43;1.90;;;0.50;;
27265;SDS011;14766;51.380;13.762;2023-03-14T15:14:10;1.52;;;0.75;;
27265;SDS011;14766;51.380;13.762;2023-03-14T15:16:38;1.23;;;0.60;;
27265;SDS011;14766;51.380;13.762;2023-03-14T15:19:10;1.30;;;0.43;;
27265;SDS011;14766;51.380;13.762;2023-03-14T15:21:53;1.00;;;0.50;;
27265;SDS011;14766;51.380;13.762;2023-03-14T15:24:21;1.38;;;0.80;;
27265;SDS011;14766;51.380;13.762;2023-03-14T15:26:49;0.88;;;0.40;;
27265;SDS011;14766;51.380;13.762;2023-03-14T15:29:17;1.02;;;0.60;;
27265;SDS011;14766;51.380;13.762;2023-03-14T15:31:44;1.15;;;0.70;;
27265;SDS011;14766;51.380;13.762;2023-03-14T15:34:11;0.52;;;0.50;;
27265;SDS011;14766;51.380;13.762;2023-03-14T15:36:39;1.42;;;0.60;;
27265;SDS011;14766;51.380;13.762;2023-03-14T15:39:07;1.50;;;0.93;;
27265;SDS011;14766;51.380;13.762;2023-03-14T15:41:36;1.52;;;0.90;;
27265;SDS011;14766;51.380;13.762;2023-03-14T15:44:03;1.25;;;0.90;;
27265;SDS011;14766;51.380;13.762;2023-03-14T15:46:30;1.13;;;0.60;;
27265;SDS011;14766;51.380;13.762;2023-03-14T15:48:57;1.60;;;1.08;;
27265;SDS011;14766;51.380;13.762;2023-03-14T15:51:25;1.83;;;1.40;;
27265;SDS011;14766;51.380;13.762;2023-03-14T15:53:52;1.13;;;0.98;;
27265;SDS011;14766;51.380;13.762;2023-03-14T15:56:19;0.75;;;0.52;;
27265;SDS011;14766;51.380;13.762;2023-03-14T15:58:50;1.00;;;0.90;;
27265;SDS011;14766;51.380;13.762;2023-03-14T16:01:17;0.95;;;0.70;;
27265;SDS011;14766;51.380;13.762;2023-03-14T16:03:45;0.90;;;0.60;;
27265;SDS011;14766;51.380;13.762;2023-03-14T16:06:15;1.05;;;0.60;;
27265;SDS011;14766;51.380;13.762;2023-03-14T16:08:42;1.67;;;0.88;;
27265;SDS011;14766;51.380;13.762;2023-03-14T16:11:09;1.20;;;0.80;;
27265;SDS011;14766;51.380;13.762;2023-03-14T16:13:38;1.58;;;0.82;;
27265;SDS011;14766;51.380;13.762;2023-03-14T16:16:06;1.08;;;0.68;;
27265;SDS011;14766;51.380;13.762;2023-03-14T16:18:35;2.38;;;0.63;;
27265;SDS011;14766;51.380;13.762;2023-03-14T16:21:04;1.15;;;0.85;;
27265;SDS011;14766;51.380;13.762;2023-03-14T16:23:42;2.22;;;1.27;;
27265;SDS011;14766;51.380;13.762;2023-03-14T16:26:10;2.15;;;1.15;;
27265;SDS011;14766;51.380;13.762;2023-03-14T16:28:41;5.30;;;2.10;;
27265;SDS011;14766;51.380;13.762;2023-03-14T16:31:09;4.05;;;1.05;;
27265;SDS011;14766;51.380;13.762;2023-03-14T16:33:39;1.90;;;0.88;;
27265;SDS011;14766;51.380;13.762;2023-03-14T16:36:07;2.35;;;0.90;;
27265;SDS011;14766;51.380;13.762;2023-03-14T16:38:38;1.02;;;0.65;;
27265;SDS011;14766;51.380;13.762;2023-03-14T16:41:09;1.15;;;0.20;;
27265;SDS011;14766;51.380;13.762;2023-03-14T16:43:36;0.75;;;0.30;;
27265;SDS011;14766;51.380;13.762;2023-03-14T16:46:04;0.82;;;0.60;;
27265;SDS011;14766;51.380;13.762;2023-03-14T16:48:34;0.20;;;0.20;;
27265;SDS011;14766;51.380;13.762;2023-03-14T16:51:01;0.95;;;0.57;;
27265;SDS011;14766;51.380;13.762;2023-03-14T16:53:28;1.23;;;0.50;;
27265;SDS011;14766;51.380;13.762;2023-03-14T16:55:56;1.98;;;0.82;;